Time;durP1;ratioP1;P1;durP2;ratioP2;P2;SDS_P1;SDS_P2;PMS_P1;PMS_P2;Temp;Humidity;BMP_temperature;BMP_pressure;BME280_temperature;BME280_humidity;BME280_pressure;Samples;Min_cycle;Max_cycle;Signal;HPM_P1;HPM_P2
2023/07/03 00:01:53;;;;;;;13.02;3.55;;;15.40;93.00;;;;;;5053805;28;20507;-54
2023/07/03 00:04:20;;;;;;;18.58;3.45;;;15.40;93.00;;;;;;5053158;28;20036;-47
2023/07/03 00:06:47;;;;;;;12.63;2.67;;;15.40;93.30;;;;;;5053748;28;20484;-46
2023/07/03 00:09:13;;;;;;;12.45;2.80;;;15.40;93.30;;;;;;5053563;28;20041;-47
2023/07/03 00:11:40;;;;;;;15.63;4.03;;;15.40;93.30;;;;;;5053852;28;20040;-49
2023/07/03 00:14:07;;;;;;;16.35;3.28;;;15.40;93.60;;;;;;5053234;28;20484;-47
2023/07/03 00:16:33;;;;;;;13.98;3.35;;;15.40;93.70;;;;;;5053696;28;20044;-47
2023/07/03 00:19:00;;;;;;;16.17;3.75;;;15.40;93.80;;;;;;5053320;28;20454;-49
2023/07/03 00:21:27;;;;;;;15.57;3.38;;;15.40;93.90;;;;;;5053426;28;20041;-46
2023/07/03 00:23:54;;;;;;;16.35;3.63;;;15.40;93.90;;;;;;5053275;28;20132;-49
2023/07/03 00:26:21;;;;;;;13.85;3.50;;;15.40;94.10;;;;;;5053566;28;20037;-49
2023/07/03 00:28:47;;;;;;;14.40;3.30;;;15.40;94.30;;;;;;5052308;28;20506;-48
2023/07/03 00:31:14;;;;;;;17.35;3.75;;;15.40;94.40;;;;;;5053517;28;20048;-47
2023/07/03 00:33:41;;;;;;;13.48;3.67;;;15.40;94.60;;;;;;5053267;28;20136;-48
2023/07/03 00:36:09;;;;;;;17.00;3.97;;;15.40;94.70;;;;;;5053235;28;20483;-46
2023/07/03 00:38:36;;;;;;;15.20;3.28;;;15.30;94.80;;;;;;5051788;28;20049;-49
2023/07/03 00:41:04;;;;;;;17.50;3.92;;;15.30;95.00;;;;;;5051759;28;20233;-52
2023/07/03 00:43:31;;;;;;;11.75;3.40;;;15.30;95.10;;;;;;5052699;28;20037;-49
2023/07/03 00:45:57;;;;;;;17.88;3.88;;;15.30;95.10;;;;;;5053355;28;20139;-52
2023/07/03 00:48:24;;;;;;;15.63;3.72;;;15.30;95.30;;;;;;5054222;28;20100;-50
2023/07/03 00:50:51;;;;;;;17.70;4.13;;;15.30;95.40;;;;;;5056112;28;20045;-54
2023/07/03 00:53:18;;;;;;;17.80;3.75;;;15.30;95.40;;;;;;5056742;28;20124;-48
2023/07/03 00:55:44;;;;;;;15.80;3.33;;;15.30;95.40;;;;;;5056077;28;20484;-50
2023/07/03 00:58:12;;;;;;;18.30;3.70;;;15.30;95.50;;;;;;5056015;28;20037;-48
2023/07/03 01:00:39;;;;;;;13.05;3.65;;;15.30;95.40;;;;;;5056701;28;20047;-45
2023/07/03 01:03:06;;;;;;;16.17;3.65;;;15.30;95.50;;;;;;5055231;28;20052;-46
2023/07/03 01:05:33;;;;;;;17.13;4.65;;;15.30;95.50;;;;;;5056784;28;20041;-48
2023/07/03 01:08:00;;;;;;;12.32;3.20;;;15.40;95.60;;;;;;5057167;28;20087;-48
2023/07/03 01:10:27;;;;;;;15.77;3.42;;;15.40;95.50;;;;;;5057262;28;20041;-48
2023/07/03 01:12:54;;;;;;;19.88;4.13;;;15.40;95.60;;;;;;5056849;28;20045;-47
2023/07/03 01:15:21;;;;;;;18.35;3.80;;;15.40;95.60;;;;;;5055134;28;20076;-49
2023/07/03 01:17:50;;;;;;;16.08;3.78;;;15.30;95.60;;;;;;5055289;28;20432;-50
2023/07/03 01:20:17;;;;;;;14.48;3.08;;;15.40;95.70;;;;;;5056498;28;20037;-47
2023/07/03 01:22:44;;;;;;;22.08;3.83;;;15.30;95.80;;;;;;5055488;28;20140;-52
2023/07/03 01:25:11;;;;;;;17.35;3.92;;;15.30;95.90;;;;;;5055505;28;20083;-48
2023/07/03 01:27:37;;;;;;;18.58;3.35;;;15.30;96.00;;;;;;5055510;28;20507;-50
2023/07/03 01:30:04;;;;;;;18.02;4.30;;;15.20;96.00;;;;;;5056468;28;20052;-49
2023/07/03 01:32:31;;;;;;;17.65;4.25;;;15.30;96.10;;;;;;5056417;28;20047;-50
2023/07/03 01:34:58;;;;;;;15.93;3.63;;;15.20;96.20;;;;;;5055302;28;20084;-50
2023/07/03 01:37:25;;;;;;;17.88;3.60;;;15.10;96.20;;;;;;5056473;28;20041;-51
2023/07/03 01:39:52;;;;;;;19.80;3.70;;;15.20;96.40;;;;;;5055356;28;20072;-47
2023/07/03 01:42:19;;;;;;;16.63;3.78;;;15.10;96.40;;;;;;5054659;28;20076;-52
2023/07/03 01:44:46;;;;;;;16.27;3.72;;;15.10;96.50;;;;;;5054874;28;20033;-46
2023/07/03 01:47:12;;;;;;;16.67;4.25;;;15.10;96.60;;;;;;5055201;28;20037;-50
2023/07/03 01:49:39;;;;;;;19.92;3.72;;;15.00;96.60;;;;;;5056439;28;20041;-49
2023/07/03 01:52:06;;;;;;;18.00;3.60;;;14.90;96.80;;;;;;5056484;28;20041;-52
2023/07/03 01:54:33;;;;;;;19.13;3.70;;;14.80;97.00;;;;;;5055837;28;20045;-48
2023/07/03 01:57:00;;;;;;;19.15;4.10;;;14.80;97.10;;;;;;5055059;28;20472;-51
2023/07/03 01:59:29;;;;;;;17.50;3.53;;;14.80;97.20;;;;;;5054905;28;20045;-47
2023/07/03 02:01:56;;;;;;;21.98;4.50;;;14.70;97.20;;;;;;5054167;28;20045;-53
2023/07/03 02:04:23;;;;;;;22.27;4.15;;;14.70;97.30;;;;;;5054773;28;20076;-47
2023/07/03 02:06:50;;;;;;;20.52;3.97;;;14.60;97.30;;;;;;5055533;28;20045;-48
2023/07/03 02:09:16;;;;;;;17.52;3.70;;;14.60;97.40;;;;;;5055704;28;20040;-48
2023/07/03 02:11:47;;;;;;;19.60;3.72;;;14.60;97.40;;;;;;5054510;28;20068;-47
2023/07/03 02:14:14;;;;;;;16.63;3.50;;;14.50;97.40;;;;;;5054446;28;20049;-48
2023/07/03 02:16:41;;;;;;;21.60;4.65;;;14.50;97.50;;;;;;5054137;28;20056;-47
2023/07/03 02:19:09;;;;;;;17.73;3.20;;;14.50;97.60;;;;;;5055754;28;20037;-45
2023/07/03 02:21:36;;;;;;;15.35;3.35;;;14.50;97.60;;;;;;5054061;28;20492;-49
2023/07/03 02:24:04;;;;;;;19.92;4.22;;;14.40;97.60;;;;;;5054571;28;20045;-51
2023/07/03 02:26:31;;;;;;;13.80;3.30;;;14.40;97.70;;;;;;5054250;28;20041;-49
2023/07/03 02:28:58;;;;;;;19.23;3.92;;;14.40;97.80;;;;;;5038068;28;20048;-48
2023/07/03 02:31:24;;;;;;;20.63;4.78;;;14.40;97.80;;;;;;5055274;28;20405;-48
2023/07/03 02:33:51;;;;;;;20.00;3.65;;;14.30;97.80;;;;;;5054287;28;20045;-49
2023/07/03 02:36:18;;;;;;;15.02;3.75;;;14.30;97.90;;;;;;5055465;28;20040;-48
2023/07/03 02:38:45;;;;;;;16.90;3.30;;;14.30;98.10;;;;;;5055384;28;20037;-53
2023/07/03 02:41:12;;;;;;;18.15;4.68;;;14.20;98.00;;;;;;5055336;28;20045;-49
2023/07/03 02:43:38;;;;;;;16.00;3.67;;;14.20;98.00;;;;;;5054873;28;20045;-47
2023/07/03 02:46:05;;;;;;;18.38;3.75;;;14.20;98.00;;;;;;5055425;28;20460;-48
2023/07/03 02:48:33;;;;;;;14.57;3.90;;;14.20;98.10;;;;;;5053436;28;20436;-47
2023/07/03 02:51:02;;;;;;;18.25;4.03;;;14.10;98.20;;;;;;5055274;28;20488;-51
2023/07/03 02:53:29;;;;;;;17.50;4.45;;;14.10;98.20;;;;;;5054826;28;20060;-49
2023/07/03 02:56:03;;;;;;;21.53;3.87;;;14.10;98.40;;;;;;5037984;28;20055;-48
2023/07/03 02:58:31;;;;;;;15.52;3.45;;;14.10;98.40;;;;;;5053548;28;20300;-49
2023/07/03 03:00:59;;;;;;;16.10;3.22;;;14.10;98.60;;;;;;5053805;28;20440;-51
2023/07/03 03:03:26;;;;;;;17.30;3.55;;;14.00;98.60;;;;;;5052880;28;20045;-46
2023/07/03 03:05:53;;;;;;;15.65;3.90;;;14.00;98.70;;;;;;5054497;28;20175;-48
2023/07/03 03:08:21;;;;;;;19.35;4.10;;;13.90;98.70;;;;;;5054597;28;20541;-46
2023/07/03 03:10:48;;;;;;;15.98;3.38;;;14.00;98.80;;;;;;5052898;28;20115;-49
2023/07/03 03:13:15;;;;;;;16.52;3.83;;;14.00;98.80;;;;;;5054245;28;20538;-46
2023/07/03 03:15:43;;;;;;;16.85;3.65;;;13.90;98.80;;;;;;5053354;28;20075;-47
2023/07/03 03:18:10;;;;;;;13.40;3.35;;;14.00;99.00;;;;;;5053957;28;20065;-46
2023/07/03 03:20:37;;;;;;;16.48;3.58;;;13.90;99.00;;;;;;5054424;28;20087;-48
2023/07/03 03:23:04;;;;;;;21.42;3.97;;;14.00;98.90;;;;;;5053067;28;20049;-48
2023/07/03 03:25:30;;;;;;;17.73;3.47;;;13.90;99.00;;;;;;5054227;28;20453;-49
2023/07/03 03:27:57;;;;;;;18.00;3.50;;;13.90;99.10;;;;;;5054640;28;20041;-51
2023/07/03 03:30:24;;;;;;;12.27;3.28;;;13.90;99.20;;;;;;5052936;28;20484;-48
2023/07/03 03:32:51;;;;;;;14.60;3.30;;;13.90;99.20;;;;;;5054325;28;20041;-51
2023/07/03 03:35:18;;;;;;;16.42;3.10;;;13.80;99.30;;;;;;5054104;28;20043;-49
2023/07/03 03:37:45;;;;;;;19.42;3.58;;;13.90;99.30;;;;;;5052939;28;20144;-49
2023/07/03 03:40:11;;;;;;;16.13;4.50;;;13.90;99.40;;;;;;5054332;28;20069;-46
2023/07/03 03:42:38;;;;;;;14.05;2.90;;;13.80;99.40;;;;;;5052893;28;20037;-50
2023/07/03 03:45:05;;;;;;;17.08;3.33;;;13.80;99.50;;;;;;5035976;28;20080;-49
2023/07/03 03:47:32;;;;;;;21.88;3.78;;;13.80;99.80;;;;;;5052973;28;20431;-47
2023/07/03 03:50:00;;;;;;;16.60;3.53;;;13.80;99.70;;;;;;5052395;28;20060;-47
2023/07/03 03:52:29;;;;;;;15.55;4.00;;;13.80;99.80;;;;;;5052741;28;20132;-52
2023/07/03 03:54:56;;;;;;;18.98;4.32;;;13.80;99.90;;;;;;5052978;28;20484;-47
2023/07/03 03:57:23;;;;;;;13.15;3.40;;;13.80;99.90;;;;;;5052965;28;20044;-50
2023/07/03 03:59:50;;;;;;;14.68;3.40;;;13.70;99.90;;;;;;5052744;28;20135;-49
2023/07/03 04:02:17;;;;;;;15.07;3.30;;;13.80;99.90;;;;;;5053810;28;20562;-47
2023/07/03 04:04:44;;;;;;;18.63;3.80;;;13.80;99.90;;;;;;5052559;28;20044;-46
2023/07/03 04:07:11;;;;;;;17.02;4.07;;;13.80;99.90;;;;;;5053708;28;20047;-47
2023/07/03 04:09:39;;;;;;;18.85;3.72;;;13.70;99.90;;;;;;5053987;28;20095;-47
2023/07/03 04:12:06;;;;;;;13.65;3.35;;;13.70;99.90;;;;;;5053920;28;20487;-53
2023/07/03 04:14:33;;;;;;;17.95;3.22;;;13.70;99.90;;;;;;5053365;28;20479;-48
2023/07/03 04:17:00;;;;;;;10.77;3.17;;;13.70;99.90;;;;;;5053832;28;20037;-48
2023/07/03 04:19:27;;;;;;;16.83;3.60;;;13.70;99.90;;;;;;5053821;28;20091;-48
2023/07/03 04:21:54;;;;;;;15.85;3.47;;;13.70;99.90;;;;;;5053331;28;20041;-47
2023/07/03 04:24:20;;;;;;;16.58;3.90;;;13.70;99.90;;;;;;5052674;28;20052;-47
2023/07/03 04:26:47;;;;;;;17.27;3.55;;;13.70;99.90;;;;;;5053670;28;20045;-49
2023/07/03 04:29:14;;;;;;;16.13;3.35;;;13.70;99.90;;;;;;5053386;28;20094;-49
2023/07/03 04:31:41;;;;;;;19.25;3.60;;;13.70;99.90;;;;;;5053879;28;20053;-49
2023/07/03 04:34:08;;;;;;;12.98;3.40;;;13.80;99.90;;;;;;5053495;28;20048;-48
2023/07/03 04:36:34;;;;;;;17.52;3.70;;;13.80;99.90;;;;;;5053408;28;20052;-49
2023/07/03 04:39:01;;;;;;;16.10;3.85;;;13.70;99.90;;;;;;5053689;28;20056;-46
2023/07/03 04:41:28;;;;;;;18.50;3.72;;;13.80;99.90;;;;;;5052469;28;20468;-50
2023/07/03 04:43:57;;;;;;;17.27;3.38;;;13.80;99.90;;;;;;5053247;28;20056;-54
2023/07/03 04:46:25;;;;;;;22.63;3.67;;;13.90;99.90;;;;;;5053530;28;20464;-49
2023/07/03 04:48:52;;;;;;;14.35;3.00;;;13.90;99.90;;;;;;5053364;28;20037;-49
2023/07/03 04:51:20;;;;;;;14.95;2.97;;;14.00;99.90;;;;;;5053299;28;20391;-52
2023/07/03 04:53:48;;;;;;;13.65;3.25;;;14.00;99.90;;;;;;5053098;28;20049;-47
2023/07/03 04:56:15;;;;;;;14.48;3.15;;;14.10;99.90;;;;;;5053626;28;20465;-47
2023/07/03 04:58:42;;;;;;;15.93;3.50;;;14.10;99.90;;;;;;5053099;28;20041;-51
2023/07/03 05:01:11;;;;;;;13.00;3.05;;;14.20;99.90;;;;;;5053316;28;20041;-49
2023/07/03 05:03:39;;;;;;;14.45;3.20;;;14.30;99.90;;;;;;5053345;28;20132;-49
2023/07/03 05:06:06;;;;;;;15.05;3.45;;;14.40;99.90;;;;;;5053440;28;20076;-46
2023/07/03 05:08:33;;;;;;;14.05;3.17;;;14.50;99.90;;;;;;5053553;28;20051;-48
2023/07/03 05:11:00;;;;;;;17.23;3.70;;;14.60;99.90;;;;;;5053327;28;20044;-50
2023/07/03 05:13:26;;;;;;;16.85;3.53;;;14.60;99.70;;;;;;5052866;28;20048;-48
2023/07/03 05:15:53;;;;;;;17.92;3.30;;;14.80;99.70;;;;;;5053135;28;20076;-48
2023/07/03 05:18:20;;;;;;;14.50;4.00;;;15.00;99.50;;;;;;5053112;28;20452;-50
2023/07/03 05:20:47;;;;;;;18.83;3.97;;;15.10;99.20;;;;;;5052971;28;20045;-49
2023/07/03 05:23:15;;;;;;;13.07;3.72;;;15.20;99.50;;;;;;5052767;28;20041;-46
2023/07/03 05:25:42;;;;;;;12.93;3.20;;;15.20;99.10;;;;;;5052283;28;20067;-46
2023/07/03 05:28:08;;;;;;;15.35;3.17;;;15.20;99.00;;;;;;5053389;28;20403;-51
2023/07/03 05:30:35;;;;;;;12.50;2.95;;;15.20;99.10;;;;;;5052690;28;20042;-48
2023/07/03 05:33:02;;;;;;;13.48;3.33;;;15.20;98.90;;;;;;5053181;28;20041;-47
2023/07/03 05:35:29;;;;;;;12.48;2.95;;;15.20;99.00;;;;;;5056040;28;20061;-47
2023/07/03 05:37:56;;;;;;;12.25;2.92;;;15.20;99.10;;;;;;5056883;28;20041;-44
2023/07/03 05:40:23;;;;;;;15.20;2.75;;;15.20;99.00;;;;;;5056283;28;20402;-45
2023/07/03 05:42:50;;;;;;;17.25;3.90;;;15.20;98.90;;;;;;5056496;28;20039;-46
2023/07/03 05:45:16;;;;;;;15.18;2.92;;;15.20;99.00;;;;;;5056771;28;20036;-49
2023/07/03 05:47:43;;;;;;;16.17;2.75;;;15.30;98.90;;;;;;5056680;28;20070;-48
2023/07/03 05:50:10;;;;;;;13.15;2.80;;;15.50;98.80;;;;;;5055972;28;20392;-49
2023/07/03 05:52:40;;;;;;;14.60;3.17;;;15.60;98.60;;;;;;5056519;28;20037;-45
2023/07/03 05:55:07;;;;;;;14.57;3.60;;;15.70;98.70;;;;;;5056118;28;20079;-48
2023/07/03 05:57:34;;;;;;;11.50;2.67;;;15.80;98.30;;;;;;5056364;28;20127;-50
2023/07/03 06:00:01;;;;;;;11.65;3.03;;;15.80;98.20;;;;;;5056299;28;20511;-46
2023/07/03 06:02:38;;;;;;;14.95;3.22;;;15.80;98.00;;;;;;5055544;28;20049;-50
2023/07/03 06:05:05;;;;;;;13.60;3.33;;;16.00;98.10;;;;;;5055855;28;20033;-49
2023/07/03 06:07:32;;;;;;;10.23;2.53;;;16.00;97.80;;;;;;5055028;28;20041;-48
2023/07/03 06:09:58;;;;;;;14.90;3.60;;;16.00;97.40;;;;;;5056019;28;20207;-50
2023/07/03 06:12:29;;;;;;;12.25;3.10;;;16.00;97.60;;;;;;5056060;28;20048;-50
2023/07/03 06:14:56;;;;;;;9.95;2.63;;;16.00;97.50;;;;;;5056244;28;20376;-50
2023/07/03 06:17:23;;;;;;;12.15;3.00;;;15.80;97.40;;;;;;5055920;28;20056;-45
2023/07/03 06:19:50;;;;;;;12.57;3.10;;;15.80;97.60;;;;;;5055499;28;20116;-45
2023/07/03 06:22:17;;;;;;;12.57;2.72;;;15.80;97.60;;;;;;5055373;28;20124;-45
2023/07/03 06:24:43;;;;;;;15.32;3.13;;;15.80;97.70;;;;;;5054385;28;20529;-45
2023/07/03 06:27:10;;;;;;;9.23;2.47;;;15.70;97.70;;;;;;5055954;28;20099;-45
2023/07/03 06:29:37;;;;;;;12.20;2.85;;;15.70;97.50;;;;;;5055403;28;20453;-47
2023/07/03 06:32:04;;;;;;;10.73;2.65;;;15.70;97.60;;;;;;5055744;28;20060;-49
2023/07/03 06:34:31;;;;;;;11.60;2.95;;;15.70;97.60;;;;;;5053819;28;20107;-47
2023/07/03 06:37:00;;;;;;;10.98;2.70;;;15.70;97.30;;;;;;5054177;28;20044;-48
2023/07/03 06:39:26;;;;;;;11.73;2.70;;;15.70;97.20;;;;;;5055445;28;20037;-45
2023/07/03 06:41:53;;;;;;;14.75;2.50;;;15.80;97.30;;;;;;5055680;28;20041;-47
2023/07/03 06:44:20;;;;;;;15.80;3.30;;;15.80;97.00;;;;;;5054206;28;20048;-47
2023/07/03 06:46:48;;;;;;;19.02;2.53;;;15.90;96.90;;;;;;5054230;28;20524;-45
2023/07/03 06:49:15;;;;;;;9.80;2.42;;;15.90;97.00;;;;;;5055542;28;20120;-46
2023/07/03 06:51:42;;;;;;;11.82;2.70;;;15.90;96.30;;;;;;5055527;28;20048;-49
2023/07/03 06:54:09;;;;;;;10.90;2.17;;;15.90;96.00;;;;;;5055159;28;20056;-46
2023/07/03 06:56:36;;;;;;;8.98;2.00;;;15.90;96.10;;;;;;5055397;28;20055;-45
2023/07/03 06:59:02;;;;;;;7.18;2.00;;;15.90;95.30;;;;;;5055275;28;20048;-44
2023/07/03 07:01:30;;;;;;;10.02;1.85;;;15.90;95.20;;;;;;5054866;28;20045;-50
2023/07/03 07:03:56;;;;;;;8.57;2.47;;;16.00;95.20;;;;;;5054595;28;20044;-48
2023/07/03 07:06:24;;;;;;;9.07;2.13;;;16.00;95.30;;;;;;5054763;28;20068;-47
2023/07/03 07:08:50;;;;;;;12.52;2.25;;;16.00;94.80;;;;;;5055154;28;20127;-47
2023/07/03 07:11:17;;;;;;;7.97;2.08;;;16.10;95.20;;;;;;5055115;28;20107;-48
2023/07/03 07:13:44;;;;;;;13.18;2.40;;;16.10;94.40;;;;;;5053306;28;20408;-47
2023/07/03 07:16:11;;;;;;;9.85;2.13;;;16.10;93.90;;;;;;5053796;28;20397;-46
2023/07/03 07:18:38;;;;;;;10.50;2.60;;;16.10;94.10;;;;;;5054274;28;20037;-51
2023/07/03 07:21:05;;;;;;;7.97;2.00;;;16.10;94.10;;;;;;5054923;28;20041;-46
2023/07/03 07:23:31;;;;;;;9.00;1.90;;;16.20;94.00;;;;;;5054868;28;20048;-47
2023/07/03 07:25:58;;;;;;;9.43;1.90;;;16.20;93.00;;;;;;5054914;28;20423;-46
2023/07/03 07:28:25;;;;;;;9.57;1.90;;;16.20;93.40;;;;;;5054751;28;20037;-45
2023/07/03 07:30:52;;;;;;;5.82;1.85;;;16.30;93.60;;;;;;5054558;28;20052;-52
2023/07/03 07:33:20;;;;;;;9.88;2.33;;;16.30;92.80;;;;;;5054010;28;20041;-49
2023/07/03 07:35:47;;;;;;;9.85;2.63;;;16.30;93.10;;;;;;5054417;28;20041;-53
2023/07/03 07:38:14;;;;;;;13.05;2.20;;;16.30;93.50;;;;;;5054564;28;20468;-48
2023/07/03 07:40:41;;;;;;;14.48;2.10;;;16.40;93.40;;;;;;5052928;28;20041;-51
2023/07/03 07:43:08;;;;;;;6.20;1.55;;;16.50;93.30;;;;;;5054049;28;20044;-48
2023/07/03 07:45:37;;;;;;;6.40;1.50;;;16.60;91.60;;;;;;5054408;28;20049;-51
2023/07/03 07:48:04;;;;;;;6.38;1.73;;;16.50;91.50;;;;;;5054003;28;20052;-48
2023/07/03 07:50:30;;;;;;;6.72;1.88;;;16.60;92.00;;;;;;5036495;28;20049;-50
2023/07/03 07:52:59;;;;;;;6.82;1.65;;;16.60;92.00;;;;;;5054246;28;20374;-48
2023/07/03 07:55:26;;;;;;;9.30;1.98;;;16.70;91.90;;;;;;5054130;28;20041;-48
2023/07/03 07:57:53;;;;;;;7.05;1.50;;;16.70;91.30;;;;;;5053768;28;20128;-46
2023/07/03 08:00:21;;;;;;;9.43;2.20;;;16.70;91.50;;;;;;5053848;28;20472;-45
2023/07/03 08:02:47;;;;;;;4.63;1.50;;;16.70;90.60;;;;;;5053882;28;20512;-47
2023/07/03 08:05:14;;;;;;;5.82;1.73;;;16.70;90.30;;;;;;5053646;28;20475;-46
2023/07/03 08:07:41;;;;;;;6.53;1.15;;;16.80;89.30;;;;;;5052735;28;20041;-46
2023/07/03 08:10:08;;;;;;;7.30;1.50;;;16.80;89.90;;;;;;5054104;28;20043;-47
2023/07/03 08:12:35;;;;;;;6.53;1.63;;;16.80;89.80;;;;;;5053319;28;20044;-51
2023/07/03 08:15:03;;;;;;;5.60;1.83;;;16.80;89.80;;;;;;5053504;28;20040;-44
2023/07/03 08:17:30;;;;;;;7.30;1.80;;;16.80;90.20;;;;;;5050061;28;20110;-51
2023/07/03 08:19:57;;;;;;;6.53;1.45;;;16.90;88.40;;;;;;5053022;28;20087;-51
2023/07/03 08:22:24;;;;;;;7.93;1.70;;;16.90;87.80;;;;;;5053575;28;20040;-47
2023/07/03 08:24:51;;;;;;;9.15;1.55;;;17.00;86.60;;;;;;5053531;28;20033;-48
2023/07/03 08:27:17;;;;;;;7.00;1.80;;;17.10;86.90;;;;;;5053646;28;20033;-45
2023/07/03 08:29:44;;;;;;;8.80;1.73;;;17.30;87.20;;;;;;5053269;28;20052;-46
2023/07/03 08:32:11;;;;;;;7.70;1.73;;;17.60;86.80;;;;;;5052482;28;20055;-47
2023/07/03 08:34:38;;;;;;;9.63;1.77;;;17.80;86.60;;;;;;5052769;28;20381;-45
2023/07/03 08:37:05;;;;;;;8.32;1.27;;;17.90;85.80;;;;;;5053119;28;20140;-45
2023/07/03 08:39:34;;;;;;;9.20;1.77;;;18.00;85.90;;;;;;5051922;28;20037;-48
2023/07/03 08:42:01;;;;;;;7.57;1.58;;;18.20;86.60;;;;;;5052324;28;20144;-45
2023/07/03 08:44:27;;;;;;;5.38;1.60;;;18.30;86.20;;;;;;5051839;28;20064;-49
2023/07/03 08:46:54;;;;;;;9.43;1.75;;;18.40;85.40;;;;;;5052291;28;20048;-48
2023/07/03 08:49:37;;;;;;;11.63;1.98;;;18.40;85.40;;;;;;5052190;28;20127;-46
2023/07/03 08:52:04;;;;;;;9.75;1.80;;;18.40;85.00;;;;;;5052369;28;20051;-45
2023/07/03 08:54:31;;;;;;;3.95;1.40;;;18.30;85.40;;;;;;5051330;28;20045;-45
2023/07/03 08:56:58;;;;;;;7.05;1.63;;;18.30;85.10;;;;;;5046075;28;20037;-48
2023/07/03 08:59:24;;;;;;;8.05;1.75;;;18.20;84.40;;;;;;5052490;28;20041;-49
2023/07/03 09:01:51;;;;;;;7.97;2.00;;;18.20;85.70;;;;;;5052122;28;20426;-47
2023/07/03 09:04:18;;;;;;;8.40;1.88;;;18.20;86.00;;;;;;5051391;28;20049;-45
2023/07/03 09:06:47;;;;;;;6.25;1.58;;;18.20;86.20;;;;;;5052312;28;20037;-45
2023/07/03 09:09:14;;;;;;;7.25;1.90;;;18.20;86.60;;;;;;5053492;28;20064;-47
2023/07/03 09:11:41;;;;;;;6.10;1.88;;;18.20;87.20;;;;;;5056658;28;20099;-47
2023/07/03 09:14:11;;;;;;;7.18;2.15;;;18.30;86.70;;;;;;5054661;28;20484;-46
2023/07/03 09:16:41;;;;;;;9.85;2.00;;;18.50;87.40;;;;;;5056365;28;20506;-46
2023/07/03 09:19:08;;;;;;;9.70;1.90;;;18.60;86.80;;;;;;5056315;28;20041;-48
2023/07/03 09:21:35;;;;;;;6.80;2.03;;;18.60;87.30;;;;;;5054695;28;20044;-49
2023/07/03 09:24:02;;;;;;;7.15;2.08;;;18.80;87.10;;;;;;5055609;28;20045;-50
2023/07/03 09:26:29;;;;;;;9.80;2.47;;;18.70;86.90;;;;;;5055322;28;20043;-50
2023/07/03 09:28:58;;;;;;;6.45;2.25;;;18.80;87.30;;;;;;5055576;28;20068;-49
2023/07/03 09:31:25;;;;;;;8.52;2.10;;;18.90;88.00;;;;;;5054995;28;20049;-46
2023/07/03 09:33:52;;;;;;;6.78;2.03;;;18.90;87.70;;;;;;5055809;28;20487;-47
2023/07/03 09:36:19;;;;;;;6.70;1.92;;;18.90;87.40;;;;;;5055535;28;20049;-47
2023/07/03 09:38:46;;;;;;;10.00;2.50;;;18.90;87.80;;;;;;5052487;28;20033;-47
2023/07/03 09:41:13;;;;;;;7.88;2.20;;;18.90;88.10;;;;;;5055459;28;20072;-48
2023/07/03 09:43:40;;;;;;;7.15;1.92;;;19.00;88.70;;;;;;5055016;28;20041;-48
2023/07/03 09:46:07;;;;;;;12.45;2.22;;;19.10;88.80;;;;;;5054158;28;20381;-48
2023/07/03 09:48:34;;;;;;;10.00;2.70;;;19.00;88.70;;;;;;5055579;28;20049;-47
2023/07/03 09:51:01;;;;;;;9.50;2.47;;;19.00;88.60;;;;;;5055001;28;20103;-50
2023/07/03 09:53:34;;;;;;;7.18;2.30;;;19.00;89.00;;;;;;5054951;28;20127;-52
2023/07/03 09:56:02;;;;;;;10.98;2.55;;;19.10;89.10;;;;;;5053465;28;20041;-48
2023/07/03 09:58:29;;;;;;;11.00;2.10;;;19.30;89.10;;;;;;5055260;28;20465;-44
2023/07/03 10:00:56;;;;;;;7.53;2.00;;;19.30;89.10;;;;;;5055190;28;20063;-48
2023/07/03 10:03:23;;;;;;;6.68;2.42;;;19.30;88.90;;;;;;5054594;28;20095;-47
2023/07/03 10:05:51;;;;;;;9.48;2.53;;;19.40;89.20;;;;;;5055012;28;20464;-48
2023/07/03 10:08:21;;;;;;;11.40;2.30;;;19.40;89.10;;;;;;5054766;28;20441;-46
2023/07/03 10:10:55;;;;;;;10.52;2.63;;;19.40;89.60;;;;;;5055008;28;20399;-49
2023/07/03 10:13:24;;;;;;;6.85;2.42;;;19.50;89.90;;;;;;5054503;28;20040;-48
2023/07/03 10:15:51;;;;;;;10.10;2.38;;;19.70;90.00;;;;;;5048939;28;20120;-46
2023/07/03 10:18:18;;;;;;;10.90;3.00;;;19.80;89.00;;;;;;5047708;28;20048;-47
2023/07/03 10:20:45;;;;;;;6.60;2.38;;;19.80;89.00;;;;;;5053602;28;20049;-46
2023/07/03 10:23:12;;;;;;;11.57;2.30;;;19.80;88.90;;;;;;5054107;28;20484;-49
2023/07/03 10:25:39;;;;;;;10.05;2.70;;;19.80;90.00;;;;;;5054940;28;20044;-48
2023/07/03 10:28:06;;;;;;;8.07;2.15;;;20.00;90.00;;;;;;5053988;28;20041;-48
2023/07/03 10:30:33;;;;;;;9.75;2.38;;;20.30;90.00;;;;;;5054414;28;20127;-46
2023/07/03 10:33:00;;;;;;;7.72;2.33;;;20.40;89.20;;;;;;5054505;28;20080;-47
2023/07/03 10:35:32;;;;;;;8.13;2.28;;;20.60;88.70;;;;;;5054232;28;20123;-50
2023/07/03 10:37:59;;;;;;;11.55;2.50;;;20.50;88.80;;;;;;5054444;28;20047;-45
2023/07/03 10:40:27;;;;;;;7.35;2.13;;;20.50;88.70;;;;;;5054511;28;20045;-46
2023/07/03 10:42:54;;;;;;;8.30;2.28;;;20.50;89.20;;;;;;5052616;28;20033;-47
2023/07/03 10:45:20;;;;;;;12.05;2.83;;;20.50;89.30;;;;;;5054333;28;20556;-51
2023/07/03 10:47:47;;;;;;;9.13;2.20;;;20.60;88.80;;;;;;5053624;28;20488;-49
2023/07/03 10:50:14;;;;;;;7.00;2.45;;;20.50;88.90;;;;;;5054592;28;20048;-45
2023/07/03 10:52:41;;;;;;;9.00;2.40;;;20.70;89.30;;;;;;5054508;28;20049;-47
2023/07/03 10:55:08;;;;;;;8.55;2.22;;;20.80;87.80;;;;;;5054434;28;20495;-50
2023/07/03 10:57:34;;;;;;;10.40;2.50;;;20.50;87.20;;;;;;5053080;28;20037;-51
2023/07/03 11:00:02;;;;;;;8.85;2.40;;;20.50;87.00;;;;;;5054772;28;20041;-47
2023/07/03 11:02:30;;;;;;;10.38;2.60;;;20.60;88.00;;;;;;5053822;28;20384;-50
2023/07/03 11:04:57;;;;;;;7.22;2.15;;;20.60;88.10;;;;;;5054473;28;20087;-47
2023/07/03 11:07:24;;;;;;;9.00;2.17;;;20.50;87.40;;;;;;5054427;28;20050;-49
2023/07/03 11:09:51;;;;;;;9.85;2.38;;;20.50;87.80;;;;;;5054513;28;20068;-48
2023/07/03 11:12:18;;;;;;;8.70;2.60;;;20.60;87.60;;;;;;5054309;28;20047;-48
2023/07/03 11:14:45;;;;;;;8.15;2.22;;;20.70;88.70;;;;;;5053882;28;20041;-52
2023/07/03 11:17:12;;;;;;;7.90;2.63;;;20.60;87.70;;;;;;5054112;28;20080;-47
2023/07/03 11:19:39;;;;;;;10.73;2.38;;;20.60;88.00;;;;;;5054213;28;20094;-52
2023/07/03 11:22:09;;;;;;;9.73;2.50;;;20.70;88.30;;;;;;5053619;28;20033;-47
2023/07/03 11:24:38;;;;;;;6.65;2.55;;;20.70;88.90;;;;;;5053196;28;20044;-47
2023/07/03 11:27:05;;;;;;;10.65;2.78;;;20.70;87.00;;;;;;5054104;28;20037;-49
2023/07/03 11:29:35;;;;;;;7.10;1.98;;;20.60;87.40;;;;;;5053493;28;20087;-46
2023/07/03 11:32:02;;;;;;;7.13;2.30;;;20.70;88.00;;;;;;5053863;28;20124;-49
2023/07/03 11:34:28;;;;;;;8.73;2.55;;;20.70;87.50;;;;;;5053667;28;20104;-46
2023/07/03 11:36:58;;;;;;;9.07;2.40;;;20.80;87.80;;;;;;5054048;28;20489;-46
2023/07/03 11:39:30;;;;;;;8.88;2.47;;;20.80;86.40;;;;;;5053983;28;20037;-50
2023/07/03 11:41:59;;;;;;;9.82;2.78;;;20.70;87.20;;;;;;5053750;28;20037;-49
2023/07/03 11:44:30;;;;;;;8.30;2.40;;;20.70;86.80;;;;;;5053136;28;20037;-47
2023/07/03 11:46:57;;;;;;;7.03;2.47;;;20.70;86.90;;;;;;5053735;28;20492;-49
2023/07/03 11:49:24;;;;;;;10.25;2.47;;;20.70;87.10;;;;;;5053222;28;20506;-48
2023/07/03 11:51:51;;;;;;;10.55;2.85;;;20.60;87.40;;;;;;5053647;28;20072;-48
2023/07/03 11:54:18;;;;;;;7.38;2.50;;;20.60;87.50;;;;;;5053198;28;20052;-48
2023/07/03 11:56:44;;;;;;;9.32;2.83;;;20.60;86.90;;;;;;5053621;28;20472;-46
2023/07/03 11:59:11;;;;;;;8.70;2.55;;;20.50;86.70;;;;;;5053418;28;20040;-52
2023/07/03 12:01:38;;;;;;;10.95;2.50;;;20.50;87.30;;;;;;5053336;28;20392;-46
2023/07/03 12:04:05;;;;;;;10.80;2.58;;;20.50;87.30;;;;;;5053306;28;20064;-48
2023/07/03 12:06:32;;;;;;;7.07;2.72;;;20.70;88.00;;;;;;5053522;28;20044;-47
2023/07/03 12:08:59;;;;;;;8.02;2.55;;;20.90;88.10;;;;;;5052877;28;20083;-49
2023/07/03 12:11:26;;;;;;;9.07;2.80;;;21.20;85.80;;;;;;5052297;28;20127;-52
2023/07/03 12:13:54;;;;;;;7.90;2.78;;;21.30;85.80;;;;;;5052878;28;20052;-49
2023/07/03 12:16:21;;;;;;;6.57;2.33;;;21.40;85.90;;;;;;5053595;28;20484;-48
2023/07/03 12:18:48;;;;;;;5.90;2.53;;;21.40;84.40;;;;;;5052557;28;20087;-50
2023/07/03 12:21:15;;;;;;;5.63;2.20;;;21.40;84.00;;;;;;5053018;28;20041;-50
2023/07/03 12:23:41;;;;;;;8.77;2.75;;;21.30;83.50;;;;;;5051944;28;20045;-46
2023/07/03 12:26:08;;;;;;;5.80;2.30;;;21.30;83.90;;;;;;5053174;28;20068;-48
2023/07/03 12:28:35;;;;;;;6.40;2.58;;;21.30;83.70;;;;;;5053132;28;20059;-51
2023/07/03 12:31:02;;;;;;;6.97;2.55;;;21.30;84.80;;;;;;5052425;28;20116;-53
2023/07/03 12:33:29;;;;;;;9.73;2.75;;;21.40;84.60;;;;;;5053102;28;20384;-46
2023/07/03 12:35:55;;;;;;;7.68;2.90;;;21.40;84.00;;;;;;5053047;28;20049;-49
2023/07/03 12:38:23;;;;;;;11.13;2.67;;;21.40;83.70;;;;;;5053189;28;20065;-49
2023/07/03 12:40:50;;;;;;;8.15;2.63;;;21.50;84.10;;;;;;5052772;28;20056;-50